DLH205 MMMX-EFHK
Flight info
| Callsign | DLH205 |
|---|---|
| Flight time | N/A |
| Altitude | 35000 |
| Route | IKLA2A IKLAN UT141 TAM DCT CLONN DCT PXV DCT YVO DCT 5470N DCT 59N061W DCT 66N036W DCT 67N016W DCT 66N000E DCT ROSBO DCT TUXOT DCT TOGMI DCT UXADA Y349 AMROT Y362 LAKUT LAKU7A |
| Aircraft | A388/J-SADE2E3FGHIJ3J4J5M1RWXY/LB1D1 |
Departure
| Time | 2026-05-05 03:53 |
|---|---|
| Airport | Mexico City Benito Juárez International Airport (MMMX) |
Arrival
| Time | N/A |
|---|---|
| Airport | Helsinki Vantaa Airport (EFHK) |
| Time | Latitude | Longitude | Altitude | Speed | Heading |
|---|---|---|---|---|---|
| 2026-05-05 03:09 | 19.42489 | -99.07867 | 7330 ft | 0 kts | 195° |
| 2026-05-05 03:42 | 19.42491 | -99.07867 | 7330 ft | 2 kts | 193° |
| 2026-05-05 03:42 | 19.42505 | -99.07867 | 7330 ft | 2 kts | 166° |
| 2026-05-05 03:42 | 19.42520 | -99.07871 | 7330 ft | 2 kts | 167° |
| 2026-05-05 03:42 | 19.42534 | -99.07874 | 7330 ft | 2 kts | 171° |
| 2026-05-05 03:43 | 19.42549 | -99.07876 | 7330 ft | 2 kts | 172° |
| 2026-05-05 03:43 | 19.42564 | -99.07879 | 7330 ft | 2 kts | 171° |
| 2026-05-05 03:43 | 19.42579 | -99.07880 | 7330 ft | 2 kts | 210° |
| 2026-05-05 03:43 | 19.42588 | -99.07873 | 7330 ft | 1 kts | 244° |
| 2026-05-05 03:44 | 19.42590 | -99.07868 | 7330 ft | 0 kts | 241° |
| 2026-05-05 03:47 | 19.42587 | -99.07873 | 7330 ft | 2 kts | 241° |
| 2026-05-05 03:47 | 19.42578 | -99.07891 | 7330 ft | 4 kts | 239° |
| 2026-05-05 03:47 | 19.42560 | -99.07923 | 7330 ft | 6 kts | 238° |
| 2026-05-05 03:47 | 19.42534 | -99.07968 | 7330 ft | 8 kts | 238° |
| 2026-05-05 03:48 | 19.42504 | -99.08020 | 7330 ft | 9 kts | 238° |
| 2026-05-05 03:48 | 19.42470 | -99.08078 | 7330 ft | 10 kts | 238° |
| 2026-05-05 03:48 | 19.42432 | -99.08141 | 7330 ft | 11 kts | 238° |
| 2026-05-05 03:48 | 19.42411 | -99.08199 | 7330 ft | 8 kts | 268° |
| 2026-05-05 03:49 | 19.42437 | -99.08241 | 7330 ft | 7 kts | 330° |
| 2026-05-05 03:49 | 19.42484 | -99.08266 | 7330 ft | 8 kts | 333° |
| 2026-05-05 03:49 | 19.42534 | -99.08301 | 7330 ft | 9 kts | 316° |
| 2026-05-05 03:49 | 19.42569 | -99.08358 | 7330 ft | 9 kts | 296° |
| 2026-05-05 03:50 | 19.42589 | -99.08404 | 7330 ft | 5 kts | 294° |
| 2026-05-05 03:50 | 19.42595 | -99.08418 | 7330 ft | 0 kts | 294° |
| 2026-05-05 03:50 | 19.42596 | -99.08420 | 7330 ft | 0 kts | 294° |
| 2026-05-05 03:50 | 19.42597 | -99.08422 | 7330 ft | 0 kts | 294° |
| 2026-05-05 03:51 | 19.42598 | -99.08426 | 7330 ft | 2 kts | 294° |
| 2026-05-05 03:51 | 19.42614 | -99.08463 | 7330 ft | 8 kts | 294° |
| 2026-05-05 03:51 | 19.42639 | -99.08520 | 7330 ft | 9 kts | 294° |
| 2026-05-05 03:51 | 19.42679 | -99.08571 | 7330 ft | 8 kts | 344° |
| 2026-05-05 03:52 | 19.42722 | -99.08548 | 7330 ft | 7 kts | 51° |
| 2026-05-05 03:52 | 19.42766 | -99.08469 | 7330 ft | 30 kts | 59° |
| 2026-05-05 03:52 | 19.42953 | -99.08133 | 7330 ft | 77 kts | 60° |
| 2026-05-05 03:52 | 19.43306 | -99.07501 | 7330 ft | 123 kts | 60° |
| 2026-05-05 03:53 | 19.43821 | -99.06586 | 7330 ft | 167 kts | 60° |
| 2026-05-05 03:53 | 19.44468 | -99.05436 | 7578 ft | 188 kts | 64° |
| 2026-05-05 03:53 | 19.45198 | -99.04225 | 7902 ft | 205 kts | 57° |
| 2026-05-05 03:53 | 19.46030 | -99.02988 | 8381 ft | 212 kts | 62° |
| 2026-05-05 03:54 | 19.46808 | -99.01626 | 8815 ft | 224 kts | 62° |
| 2026-05-05 03:54 | 19.47652 | -99.00189 | 9240 ft | 238 kts | 59° |
| 2026-05-05 03:54 | 19.48545 | -98.98689 | 9652 ft | 245 kts | 58° |
| 2026-05-05 03:54 | 19.49439 | -98.97153 | 10034 ft | 247 kts | 59° |
| 2026-05-05 03:55 | 19.50384 | -98.95629 | 10325 ft | 256 kts | 45° |
| 2026-05-05 03:55 | 19.51942 | -98.94676 | 10832 ft | 264 kts | 14° |
| 2026-05-05 03:55 | 19.53771 | -98.94332 | 11297 ft | 280 kts | 6° |
| 2026-05-05 03:55 | 19.55757 | -98.94169 | 11889 ft | 296 kts | 2° |
| 2026-05-05 03:56 | 19.57821 | -98.94050 | 12470 ft | 302 kts | 2° |
| 2026-05-05 03:56 | 19.59909 | -98.93927 | 13024 ft | 304 kts | 2° |
| 2026-05-05 03:56 | 19.62008 | -98.93806 | 13576 ft | 305 kts | 3° |
| 2026-05-05 03:56 | 19.64109 | -98.93686 | 14126 ft | 306 kts | 3° |
| 2026-05-05 03:57 | 19.66237 | -98.93563 | 14679 ft | 307 kts | 4° |
| 2026-05-05 03:57 | 19.68397 | -98.93438 | 15256 ft | 322 kts | 4° |
| 2026-05-05 03:57 | 19.70677 | -98.93303 | 15860 ft | 340 kts | 4° |
| 2026-05-05 03:57 | 19.73086 | -98.93163 | 16462 ft | 360 kts | 4° |
| 2026-05-05 03:58 | 19.75638 | -98.93015 | 17065 ft | 381 kts | 4° |
| 2026-05-05 03:58 | 19.78336 | -98.92858 | 17665 ft | 403 kts | 4° |
| 2026-05-05 03:58 | 19.81154 | -98.92694 | 18245 ft | 413 kts | 4° |
| 2026-05-05 03:58 | 19.84043 | -98.92526 | 18804 ft | 418 kts | 4° |
| 2026-05-05 03:59 | 19.86939 | -98.92357 | 19355 ft | 422 kts | 4° |
| 2026-05-05 03:59 | 19.89861 | -98.92188 | 19901 ft | 425 kts | 4° |
| 2026-05-05 03:59 | 19.92814 | -98.92016 | 20356 ft | 429 kts | 4° |
| 2026-05-05 03:59 | 19.95786 | -98.91843 | 20806 ft | 432 kts | 4° |
| 2026-05-05 04:00 | 19.98776 | -98.91668 | 21254 ft | 435 kts | 4° |
| 2026-05-05 04:00 | 20.01789 | -98.91491 | 21702 ft | 438 kts | 4° |
| 2026-05-05 04:00 | 20.04847 | -98.91311 | 22156 ft | 441 kts | 4° |
| 2026-05-05 04:00 | 20.07905 | -98.91135 | 22606 ft | 444 kts | 4° |
| 2026-05-05 04:01 | 20.10988 | -98.90956 | 23057 ft | 447 kts | 4° |
| 2026-05-05 04:01 | 20.14093 | -98.90775 | 23509 ft | 450 kts | 4° |
| 2026-05-05 04:01 | 20.16919 | -98.90610 | 23918 ft | 453 kts | 4° |
| 2026-05-05 04:01 | 20.19692 | -98.90448 | 24318 ft | 455 kts | 4° |
| 2026-05-05 04:02 | 20.22842 | -98.90263 | 24769 ft | 458 kts | 4° |
| 2026-05-05 04:02 | 20.26036 | -98.90076 | 25225 ft | 460 kts | 3° |
| 2026-05-05 04:02 | 20.29218 | -98.89890 | 25677 ft | 462 kts | 3° |
| 2026-05-05 04:02 | 20.32415 | -98.89703 | 26128 ft | 464 kts | 3° |
| 2026-05-05 04:03 | 20.35629 | -98.89514 | 26581 ft | 466 kts | 3° |
| 2026-05-05 04:03 | 20.38855 | -98.89324 | 27018 ft | 469 kts | 4° |
| 2026-05-05 04:03 | 20.42043 | -98.88695 | 27307 ft | 472 kts | 20° |
| 2026-05-05 04:03 | 20.44948 | -98.87093 | 27674 ft | 475 kts | 31° |
| 2026-05-05 04:04 | 20.47724 | -98.85140 | 28024 ft | 478 kts | 34° |
| 2026-05-05 04:04 | 20.50442 | -98.83093 | 28357 ft | 483 kts | 34° |
| 2026-05-05 04:04 | 20.53173 | -98.81015 | 28686 ft | 485 kts | 34° |
| 2026-05-05 04:04 | 20.55906 | -98.78935 | 29008 ft | 485 kts | 34° |
| 2026-05-05 04:05 | 20.58635 | -98.76856 | 29328 ft | 484 kts | 34° |
| 2026-05-05 04:05 | 20.61357 | -98.74780 | 29647 ft | 483 kts | 34° |
| 2026-05-05 04:05 | 20.64083 | -98.72702 | 29966 ft | 482 kts | 34° |
| 2026-05-05 04:05 | 20.66870 | -98.70712 | 30279 ft | 480 kts | 29° |
| 2026-05-05 04:06 | 20.69751 | -98.68971 | 30596 ft | 479 kts | 27° |
| 2026-05-05 04:06 | 20.72623 | -98.67211 | 30841 ft | 479 kts | 28° |
| 2026-05-05 04:06 | 20.75485 | -98.65442 | 31086 ft | 478 kts | 28° |
| 2026-05-05 04:06 | 20.78347 | -98.63675 | 31332 ft | 477 kts | 28° |
| 2026-05-05 04:07 | 20.81202 | -98.61913 | 31576 ft | 477 kts | 28° |
| 2026-05-05 04:07 | 20.84052 | -98.60152 | 31820 ft | 476 kts | 28° |
| 2026-05-05 04:07 | 20.86919 | -98.58380 | 32067 ft | 475 kts | 28° |
| 2026-05-05 04:07 | 20.89757 | -98.56624 | 32311 ft | 474 kts | 28° |
| 2026-05-05 04:08 | 20.92591 | -98.54872 | 32555 ft | 473 kts | 28° |
| 2026-05-05 04:08 | 20.95421 | -98.53121 | 32799 ft | 472 kts | 28° |
| 2026-05-05 04:08 | 20.98245 | -98.51373 | 33043 ft | 472 kts | 28° |
| 2026-05-05 04:08 | 21.01064 | -98.49627 | 33286 ft | 471 kts | 28° |
| 2026-05-05 04:09 | 21.03879 | -98.47881 | 33530 ft | 470 kts | 27° |
| 2026-05-05 04:09 | 21.06711 | -98.46126 | 33776 ft | 469 kts | 27° |
| 2026-05-05 04:09 | 21.09518 | -98.44386 | 34019 ft | 469 kts | 27° |
| 2026-05-05 04:09 | 21.12326 | -98.42644 | 34268 ft | 468 kts | 27° |
| 2026-05-05 04:10 | 21.15122 | -98.40908 | 34517 ft | 467 kts | 27° |
| 2026-05-05 04:10 | 21.17908 | -98.39177 | 34765 ft | 465 kts | 27° |
| 2026-05-05 04:10 | 21.20686 | -98.37450 | 34981 ft | 465 kts | 27° |
| 2026-05-05 04:10 | 21.23475 | -98.35718 | 34980 ft | 467 kts | 27° |
| 2026-05-05 04:11 | 21.29090 | -98.32224 | 34982 ft | 468 kts | 27° |
| 2026-05-05 04:11 | 21.34711 | -98.28726 | 34981 ft | 469 kts | 27° |
| 2026-05-05 04:12 | 21.40325 | -98.25228 | 34981 ft | 469 kts | 27° |
| 2026-05-05 04:12 | 21.45962 | -98.21712 | 34980 ft | 470 kts | 27° |
| 2026-05-05 04:13 | 21.51587 | -98.18200 | 34970 ft | 470 kts | 27° |
| 2026-05-05 04:13 | 21.57213 | -98.14686 | 34961 ft | 470 kts | 27° |
| 2026-05-05 04:14 | 21.62832 | -98.11171 | 34952 ft | 470 kts | 27° |
| 2026-05-05 04:14 | 21.68476 | -98.07639 | 34951 ft | 470 kts | 27° |
| 2026-05-05 04:15 | 21.74109 | -98.04110 | 34952 ft | 473 kts | 27° |
| 2026-05-05 04:15 | 21.79766 | -98.00562 | 34949 ft | 474 kts | 27° |
| 2026-05-05 04:16 | 21.85460 | -97.96988 | 34946 ft | 474 kts | 27° |
| 2026-05-05 04:16 | 21.91123 | -97.93430 | 34945 ft | 474 kts | 27° |
| 2026-05-05 04:17 | 21.96785 | -97.89869 | 34944 ft | 474 kts | 27° |
| 2026-05-05 04:17 | 22.02449 | -97.86304 | 34944 ft | 474 kts | 27° |
| 2026-05-05 04:18 | 22.08132 | -97.82724 | 34944 ft | 474 kts | 27° |
| 2026-05-05 04:18 | 22.13793 | -97.79153 | 34945 ft | 474 kts | 27° |
| 2026-05-05 04:19 | 22.19457 | -97.75578 | 34942 ft | 474 kts | 27° |
| 2026-05-05 04:19 | 22.25138 | -97.71990 | 34938 ft | 474 kts | 27° |
| 2026-05-05 04:20 | 22.30804 | -97.68404 | 34939 ft | 474 kts | 27° |
| 2026-05-05 04:20 | 22.36468 | -97.64821 | 34938 ft | 474 kts | 27° |
| 2026-05-05 04:21 | 22.42128 | -97.61233 | 34939 ft | 474 kts | 27° |
| 2026-05-05 04:21 | 22.47829 | -97.57617 | 34938 ft | 474 kts | 27° |
| 2026-05-05 04:22 | 22.53491 | -97.54024 | 34939 ft | 474 kts | 27° |
| 2026-05-05 04:22 | 22.59150 | -97.50428 | 34939 ft | 474 kts | 26° |
| 2026-05-05 04:23 | 22.64831 | -97.46813 | 34939 ft | 474 kts | 26° |
| 2026-05-05 04:23 | 22.70486 | -97.43214 | 34939 ft | 474 kts | 26° |
| 2026-05-05 04:24 | 22.76141 | -97.39610 | 34936 ft | 475 kts | 26° |
| 2026-05-05 04:25 | 22.84649 | -97.34182 | 34933 ft | 475 kts | 27° |
| 2026-05-05 04:25 | 22.90302 | -97.30570 | 34924 ft | 474 kts | 26° |
| 2026-05-05 04:26 | 22.95955 | -97.26954 | 34922 ft | 475 kts | 26° |
| 2026-05-05 04:26 | 23.01611 | -97.23335 | 34923 ft | 475 kts | 26° |
| 2026-05-05 04:27 | 23.07288 | -97.19697 | 34923 ft | 475 kts | 26° |
| 2026-05-05 04:27 | 23.12945 | -97.16069 | 34928 ft | 475 kts | 26° |
| 2026-05-05 04:28 | 23.18603 | -97.12437 | 34927 ft | 475 kts | 26° |
| 2026-05-05 04:28 | 23.24279 | -97.08788 | 34928 ft | 475 kts | 26° |
| 2026-05-05 04:29 | 23.29932 | -97.05153 | 34927 ft | 475 kts | 26° |
| 2026-05-05 04:29 | 23.35583 | -97.01513 | 34928 ft | 474 kts | 26° |
| 2026-05-05 04:30 | 23.41232 | -96.97873 | 34929 ft | 474 kts | 26° |
| 2026-05-05 04:30 | 23.46901 | -96.94215 | 34933 ft | 474 kts | 26° |
| 2026-05-05 04:31 | 23.52545 | -96.90569 | 34935 ft | 474 kts | 26° |
| 2026-05-05 04:31 | 23.58189 | -96.86921 | 34938 ft | 474 kts | 25° |
| 2026-05-05 04:32 | 23.63851 | -96.83256 | 34937 ft | 474 kts | 25° |
| 2026-05-05 04:32 | 23.69489 | -96.79603 | 34937 ft | 474 kts | 25° |
| 2026-05-05 04:33 | 23.75117 | -96.75954 | 34936 ft | 473 kts | 25° |
| 2026-05-05 04:33 | 23.80743 | -96.72302 | 34937 ft | 473 kts | 25° |
| 2026-05-05 04:34 | 23.86392 | -96.68630 | 34936 ft | 472 kts | 25° |
| 2026-05-05 04:34 | 23.92004 | -96.64979 | 34933 ft | 472 kts | 25° |
| 2026-05-05 04:35 | 23.97617 | -96.61326 | 34930 ft | 472 kts | 25° |
| 2026-05-05 04:35 | 24.03254 | -96.57648 | 34928 ft | 472 kts | 25° |
| 2026-05-05 04:36 | 24.08867 | -96.53989 | 34928 ft | 472 kts | 25° |
| 2026-05-05 04:36 | 24.14475 | -96.50326 | 34935 ft | 472 kts | 25° |
| 2026-05-05 04:37 | 24.20081 | -96.46661 | 34934 ft | 472 kts | 25° |
| 2026-05-05 04:37 | 24.25709 | -96.42978 | 34934 ft | 472 kts | 25° |
| 2026-05-05 04:38 | 24.31314 | -96.39305 | 34935 ft | 472 kts | 25° |
| 2026-05-05 04:38 | 24.36909 | -96.35636 | 34935 ft | 471 kts | 25° |
| 2026-05-05 04:39 | 24.42516 | -96.31954 | 34924 ft | 471 kts | 25° |
| 2026-05-05 04:39 | 24.48102 | -96.28283 | 34924 ft | 470 kts | 25° |
| 2026-05-05 04:40 | 24.53685 | -96.24609 | 34922 ft | 470 kts | 25° |
| 2026-05-05 04:40 | 24.59268 | -96.20932 | 34920 ft | 470 kts | 25° |
| 2026-05-05 04:41 | 24.64234 | -96.17659 | 34921 ft | 470 kts | 25° |
| 2026-05-05 04:41 | 24.69811 | -96.13976 | 34925 ft | 470 kts | 25° |
| 2026-05-05 04:42 | 24.75387 | -96.10294 | 34929 ft | 470 kts | 25° |
| 2026-05-05 04:42 | 24.80984 | -96.06592 | 34933 ft | 470 kts | 25° |
| 2026-05-05 04:43 | 24.86556 | -96.02904 | 34938 ft | 470 kts | 25° |
| 2026-05-05 04:43 | 24.92122 | -95.99214 | 34943 ft | 469 kts | 25° |
| 2026-05-05 04:44 | 24.97674 | -95.95531 | 34942 ft | 468 kts | 25° |
| 2026-05-05 04:44 | 25.03236 | -95.91837 | 34940 ft | 468 kts | 25° |
| 2026-05-05 04:45 | 25.08779 | -95.88151 | 34942 ft | 468 kts | 24° |
| 2026-05-05 04:45 | 25.14317 | -95.84464 | 34950 ft | 467 kts | 24° |